Time;durP1;ratioP1;P1;durP2;ratioP2;P2;SDS_P1;SDS_P2;PMS_P1;PMS_P2;Temp;Humidity;BMP_temperature;BMP_pressure;BME280_temperature;BME280_humidity;BME280_pressure;Samples;Min_cycle;Max_cycle;Signal;HPM_P1;HPM_P2
2022/08/29 00:00:33;;;;;;;1.33;0.60;;;;;21.80;102091.00;;;;5083687;28;20194;-77
2022/08/29 00:03:02;;;;;;;1.27;0.80;;;;;21.80;102092.00;;;;5079631;28;20202;-77
2022/08/29 00:05:34;;;;;;;2.33;1.10;;;;;21.70;102087.00;;;;5080379;28;20213;-77
2022/08/29 00:08:03;;;;;;;1.55;0.70;;;;;21.70;102095.00;;;;5079453;28;20202;-77
2022/08/29 00:10:32;;;;;;;0.93;0.80;;;;;21.60;102085.00;;;;5077191;28;20218;-77
2022/08/29 00:13:00;;;;;;;2.08;0.70;;;;;21.60;102088.00;;;;5079383;28;20567;-77
2022/08/29 00:15:28;;;;;;;1.98;0.93;;;;;21.50;102083.00;;;;5079604;28;20206;-77
2022/08/29 00:17:57;;;;;;;1.35;0.70;;;;;21.50;102087.00;;;;5080480;28;20190;-77
2022/08/29 00:20:28;;;;;;;3.17;1.17;;;;;21.40;102089.00;;;;5079820;28;20226;-77
2022/08/29 00:22:55;;;;;;;1.65;0.90;;;;;21.40;102082.00;;;;5088344;28;20202;-77
2022/08/29 00:25:23;;;;;;;1.45;0.80;;;;;21.30;102090.00;;;;5080144;28;20213;-77
2022/08/29 00:27:50;;;;;;;1.92;0.60;;;;;21.30;102096.00;;;;5080765;28;20606;-77
2022/08/29 00:30:19;;;;;;;2.08;1.10;;;;;21.20;102095.00;;;;5074194;28;20202;-77
2022/08/29 00:32:46;;;;;;;3.97;0.90;;;;;21.20;102097.00;;;;5078840;28;20497;-77
2022/08/29 00:35:18;;;;;;;0.95;0.75;;;;;21.10;102097.00;;;;5083030;28;20202;-77
2022/08/29 00:37:46;;;;;;;4.45;0.60;;;;;21.10;102085.00;;;;5076745;28;20515;-77
2022/08/29 00:40:16;;;;;;;3.30;0.70;;;;;21.00;102084.00;;;;5079062;28;20202;-77
2022/08/29 00:42:44;;;;;;;1.40;0.80;;;;;21.00;102080.00;;;;5085062;28;20217;-77
2022/08/29 00:45:13;;;;;;;1.40;0.70;;;;;21.00;102087.00;;;;5080709;28;20202;-77
2022/08/29 00:47:45;;;;;;;2.20;0.80;;;;;20.90;102086.00;;;;5076192;28;20599;-77
2022/08/29 00:50:22;;;;;;;2.35;0.70;;;;;20.90;102099.00;;;;5082799;28;20194;-78
2022/08/29 00:52:49;;;;;;;1.63;0.75;;;;;20.90;102104.00;;;;5077029;28;20202;-77
2022/08/29 00:55:21;;;;;;;1.05;0.50;;;;;20.80;102103.00;;;;5074602;28;20691;-77
2022/08/29 00:57:52;;;;;;;1.20;0.80;;;;;20.80;102102.00;;;;5078035;28;20222;-77
2022/08/29 01:00:20;;;;;;;2.28;0.70;;;;;20.80;102099.00;;;;5077524;28;20186;-77
2022/08/29 01:02:48;;;;;;;1.90;0.63;;;;;20.70;102096.00;;;;5078207;28;20608;-77
2022/08/29 01:05:21;;;;;;;1.73;0.70;;;;;20.60;102104.00;;;;5093574;28;20239;-77
2022/08/29 01:07:50;;;;;;;1.38;0.68;;;;;20.70;102096.00;;;;5090393;28;20198;-77
2022/08/29 01:13:00;;;;;;;0.82;0.80;;;;;20.60;102093.00;;;;5083452;28;20194;-77
2022/08/29 01:15:29;;;;;;;1.42;0.70;;;;;20.60;102102.00;;;;5085446;28;20212;-77
2022/08/29 01:17:58;;;;;;;1.13;0.80;;;;;20.50;102101.00;;;;5082788;28;20213;-77
2022/08/29 01:20:37;;;;;;;1.85;0.90;;;;;20.50;102102.00;;;;5081474;28;20225;-77
2022/08/29 01:23:12;;;;;;;1.10;0.70;;;;;20.50;102106.00;;;;5076809;28;20324;-77
2022/08/29 01:25:48;;;;;;;1.85;0.73;;;;;20.40;102106.00;;;;5078429;28;20197;-77
2022/08/29 01:28:20;;;;;;;2.85;0.77;;;;;20.40;102102.00;;;;5076502;28;20222;-77
2022/08/29 01:31:05;;;;;;;0.65;0.60;;;;;20.30;102104.00;;;;5074607;28;20485;-77
2022/08/29 01:33:39;;;;;;;1.20;0.85;;;;;20.40;102104.00;;;;5078011;28;20202;-77
2022/08/29 01:36:09;;;;;;;1.77;0.80;;;;;20.40;102106.00;;;;5078161;28;20197;-77
2022/08/29 01:38:37;;;;;;;2.15;0.80;;;;;20.40;102107.00;;;;5086210;28;20202;-77
2022/08/29 01:41:06;;;;;;;3.72;0.70;;;;;20.40;102101.00;;;;5077104;28;20206;-77
2022/08/29 01:43:39;;;;;;;2.20;0.90;;;;;20.30;102108.00;;;;5078182;28;20198;-77
2022/08/29 01:46:07;;;;;;;2.08;0.90;;;;;20.30;102106.00;;;;5089551;28;20206;-77
2022/08/29 01:48:37;;;;;;;2.13;0.77;;;;;20.30;102107.00;;;;5085589;28;20202;-77
2022/08/29 01:51:05;;;;;;;2.28;1.05;;;;;20.30;102104.00;;;;5080171;28;20677;-77
2022/08/29 01:53:32;;;;;;;1.13;0.80;;;;;20.30;102107.00;;;;5083853;28;20209;-77
2022/08/29 01:55:59;;;;;;;1.38;0.70;;;;;20.20;102095.00;;;;5085695;28;20304;-77
2022/08/29 01:58:28;;;;;;;2.38;1.02;;;;;20.20;102089.00;;;;5082498;28;20214;-77
2022/08/29 02:00:55;;;;;;;1.65;0.90;;;;;20.20;102095.00;;;;5082570;28;20681;-77
2022/08/29 02:03:24;;;;;;;1.50;0.65;;;;;20.20;102083.00;;;;5085177;28;20560;-77
2022/08/29 02:05:51;;;;;;;2.40;0.77;;;;;20.20;102092.00;;;;5085804;28;20213;-76
2022/08/29 02:08:20;;;;;;;2.80;0.75;;;;;20.20;102101.00;;;;5088039;28;20198;-77
2022/08/29 02:10:48;;;;;;;3.65;0.93;;;;;20.10;102095.00;;;;5089646;28;20781;-77
2022/08/29 02:13:15;;;;;;;2.40;1.10;;;;;20.10;102098.00;;;;5085888;28;20217;-77
2022/08/29 02:15:43;;;;;;;2.15;0.82;;;;;20.10;102093.00;;;;5089516;28;20190;-77
2022/08/29 02:18:11;;;;;;;1.05;0.70;;;;;20.10;102092.00;;;;5089885;28;20202;-76
2022/08/29 02:20:38;;;;;;;2.97;0.80;;;;;20.10;102091.00;;;;5089217;28;20218;-77
2022/08/29 02:23:05;;;;;;;1.55;0.70;;;;;20.10;102092.00;;;;5089095;28;20620;-77
2022/08/29 02:25:42;;;;;;;1.17;0.80;;;;;20.00;102084.00;;;;5087120;28;20202;-77
2022/08/29 02:28:11;;;;;;;2.40;0.90;;;;;20.00;102087.00;;;;5084409;28;20229;-77
2022/08/29 02:30:38;;;;;;;1.65;0.82;;;;;20.00;102096.00;;;;5087035;28;20198;-77
2022/08/29 02:33:08;;;;;;;1.88;1.05;;;;;20.00;102097.00;;;;5087752;28;20230;-77
2022/08/29 02:35:37;;;;;;;1.83;1.20;;;;;20.00;102103.00;;;;5087131;28;20329;-78
2022/08/29 02:38:06;;;;;;;2.35;0.82;;;;;19.90;102104.00;;;;5090117;28;20194;-78
2022/08/29 02:40:33;;;;;;;1.48;1.00;;;;;19.90;102103.00;;;;5087697;28;20198;-78
2022/08/29 02:43:01;;;;;;;1.52;1.08;;;;;19.90;102096.00;;;;5086424;28;20197;-76
2022/08/29 02:45:29;;;;;;;2.20;0.90;;;;;19.90;102102.00;;;;5097545;28;20198;-76
2022/08/29 02:47:57;;;;;;;1.58;0.57;;;;;19.90;102106.00;;;;5087881;28;20198;-76
2022/08/29 02:50:26;;;;;;;0.98;0.68;;;;;19.80;102102.00;;;;5088159;28;20197;-76
2022/08/29 02:52:53;;;;;;;2.22;0.88;;;;;19.80;102107.00;;;;5084952;28;20230;-76
2022/08/29 02:55:22;;;;;;;3.72;0.90;;;;;19.80;102104.00;;;;5083282;28;20699;-76
2022/08/29 02:57:50;;;;;;;1.20;0.80;;;;;19.80;102105.00;;;;5083422;28;20198;-76
2022/08/29 03:00:21;;;;;;;0.93;0.63;;;;;19.70;102105.00;;;;5082123;28;20656;-76
2022/08/29 03:02:49;;;;;;;1.48;0.90;;;;;19.70;102109.00;;;;5079909;28;20636;-76
2022/08/29 03:05:19;;;;;;;1.08;0.75;;;;;19.70;102108.00;;;;5081618;28;20202;-76
2022/08/29 03:07:48;;;;;;;1.80;1.00;;;;;19.70;102108.00;;;;5081555;28;20505;-76
2022/08/29 03:10:15;;;;;;;1.55;0.88;;;;;19.70;102098.00;;;;5082726;28;20198;-77
2022/08/29 03:12:42;;;;;;;0.95;0.68;;;;;19.70;102092.00;;;;5078769;28;20222;-77
2022/08/29 03:15:11;;;;;;;1.58;1.02;;;;;19.70;102097.00;;;;5080756;28;20190;-77
2022/08/29 03:17:38;;;;;;;1.90;0.65;;;;;19.70;102097.00;;;;5079425;28;20194;-77
2022/08/29 03:20:08;;;;;;;1.38;0.80;;;;;19.60;102094.00;;;;5080594;28;20225;-77
2022/08/29 03:22:36;;;;;;;2.83;1.30;;;;;19.60;102100.00;;;;5080175;28;20190;-77
2022/08/29 03:25:06;;;;;;;2.50;1.13;;;;;19.60;102099.00;;;;5080011;28;20566;-77
2022/08/29 03:27:34;;;;;;;1.05;0.80;;;;;19.60;102095.00;;;;5078569;28;20230;-77
2022/08/29 03:30:02;;;;;;;1.70;0.80;;;;;19.60;102090.00;;;;5081971;28;20198;-77
2022/08/29 03:32:29;;;;;;;1.63;0.77;;;;;19.60;102080.00;;;;5080898;28;20238;-76
2022/08/29 03:34:56;;;;;;;0.75;0.55;;;;;19.60;102077.00;;;;5080254;28;20202;-76
2022/08/29 03:37:25;;;;;;;1.67;1.02;;;;;19.60;102078.00;;;;5080475;28;20198;-76
2022/08/29 03:39:52;;;;;;;0.95;0.68;;;;;19.60;102077.00;;;;5078318;28;21463;-76
2022/08/29 03:42:21;;;;;;;1.75;0.90;;;;;19.60;102081.00;;;;5081272;28;20668;-76
2022/08/29 03:44:48;;;;;;;0.90;0.65;;;;;19.60;102074.00;;;;5079417;28;20198;-76
2022/08/29 03:47:16;;;;;;;1.63;0.80;;;;;19.60;102073.00;;;;5079987;28;20194;-76
2022/08/29 03:49:43;;;;;;;1.65;0.75;;;;;19.60;102078.00;;;;5078058;28;20209;-76
2022/08/29 03:52:10;;;;;;;1.15;0.80;;;;;19.60;102072.00;;;;5087380;28;20224;-76
2022/08/29 03:54:38;;;;;;;3.20;1.05;;;;;19.60;102072.00;;;;5092053;28;20190;-76
2022/08/29 03:57:06;;;;;;;1.63;0.85;;;;;19.60;102072.00;;;;5082344;28;20198;-76
2022/08/29 03:59:35;;;;;;;2.28;1.05;;;;;19.60;102082.00;;;;5081849;28;20206;-76
2022/08/29 04:02:02;;;;;;;1.70;1.13;;;;;19.70;102078.00;;;;5075242;28;20224;-76
2022/08/29 04:07:16;;;;;;;1.50;0.90;;;;;19.70;102081.00;;;;5078376;28;20962;-76
2022/08/29 04:09:43;;;;;;;1.90;0.73;;;;;19.70;102078.00;;;;5078624;28;20572;-76
2022/08/29 04:12:12;;;;;;;3.67;1.08;;;;;19.70;102070.00;;;;5079539;28;20218;-76
2022/08/29 04:14:41;;;;;;;1.23;0.80;;;;;19.70;102071.00;;;;5078102;28;20194;-76
2022/08/29 04:17:11;;;;;;;1.13;0.73;;;;;19.80;102074.00;;;;5079868;28;20205;-76
2022/08/29 04:19:38;;;;;;;2.72;0.90;;;;;19.80;102072.00;;;;5084700;28;20229;-76
2022/08/29 04:22:06;;;;;;;2.83;0.80;;;;;19.80;102062.00;;;;5087177;28;20198;-76
2022/08/29 04:24:35;;;;;;;2.28;1.27;;;;;19.80;102064.00;;;;5077398;28;20206;-76
2022/08/29 04:27:02;;;;;;;1.77;1.02;;;;;19.80;102063.00;;;;5078056;28;20210;-76
2022/08/29 04:29:29;;;;;;;1.30;0.80;;;;;19.80;102058.00;;;;5079356;28;20759;-76
2022/08/29 04:31:58;;;;;;;1.33;0.80;;;;;19.80;102060.00;;;;5079692;28;20819;-76
2022/08/29 04:34:25;;;;;;;3.60;1.30;;;;;19.90;102065.00;;;;5080312;28;20194;-76
2022/08/29 04:36:52;;;;;;;1.05;0.73;;;;;19.90;102071.00;;;;5078948;28;20236;-76
2022/08/29 04:39:19;;;;;;;4.18;0.80;;;;;19.90;102072.00;;;;5079687;28;20201;-76
2022/08/29 04:41:47;;;;;;;1.00;0.70;;;;;19.90;102072.00;;;;5078818;28;20206;-76
2022/08/29 04:44:14;;;;;;;1.88;0.82;;;;;19.90;102076.00;;;;5079006;28;20193;-77
2022/08/29 04:46:41;;;;;;;1.90;0.90;;;;;19.90;102085.00;;;;5080458;28;20578;-77
2022/08/29 04:49:10;;;;;;;1.17;0.98;;;;;19.90;102072.00;;;;5082485;28;20198;-76
2022/08/29 04:51:37;;;;;;;1.45;1.00;;;;;20.00;102079.00;;;;5076950;28;20207;-77
2022/08/29 04:54:05;;;;;;;2.30;0.90;;;;;20.00;102083.00;;;;5077960;28;20225;-76
2022/08/29 04:56:33;;;;;;;1.65;1.08;;;;;20.00;102083.00;;;;5076658;28;20317;-77
2022/08/29 04:59:00;;;;;;;2.53;1.10;;;;;20.00;102085.00;;;;5076148;28;20202;-76
2022/08/29 05:01:27;;;;;;;2.47;0.85;;;;;20.00;102091.00;;;;5075858;28;20202;-77
2022/08/29 05:03:56;;;;;;;1.52;0.90;;;;;20.00;102093.00;;;;5080052;28;20202;-76
2022/08/29 05:06:25;;;;;;;2.17;1.00;;;;;20.00;102098.00;;;;5082247;28;20201;-76
2022/08/29 05:08:53;;;;;;;1.50;0.82;;;;;20.10;102093.00;;;;5078308;28;20213;-77
2022/08/29 05:11:21;;;;;;;1.60;0.98;;;;;20.00;102096.00;;;;5075942;28;20195;-76
2022/08/29 05:13:50;;;;;;;1.40;0.80;;;;;20.10;102093.00;;;;5080761;28;20711;-76
2022/08/29 05:16:18;;;;;;;3.92;1.83;;;;;20.00;102089.00;;;;5085000;28;20460;-77
2022/08/29 05:18:46;;;;;;;1.70;1.10;;;;;20.20;102091.00;;;;5081377;28;21376;-76
2022/08/29 05:21:14;;;;;;;2.17;0.82;;;;;20.20;102097.00;;;;5078014;28;20299;-76
2022/08/29 05:23:42;;;;;;;1.58;0.80;;;;;20.20;102100.00;;;;5080608;28;20198;-76
2022/08/29 05:26:10;;;;;;;1.58;1.00;;;;;20.20;102101.00;;;;5085816;28;20202;-76
2022/08/29 05:28:37;;;;;;;1.65;1.20;;;;;20.20;102102.00;;;;5086731;28;20222;-76
2022/08/29 05:31:04;;;;;;;2.00;1.30;;;;;20.20;102112.00;;;;5083556;28;20225;-77
2022/08/29 05:33:32;;;;;;;4.18;1.23;;;;;20.30;102110.00;;;;5082996;28;20222;-76
2022/08/29 05:35:59;;;;;;;2.60;1.23;;;;;20.30;102112.00;;;;5087042;28;20193;-76
2022/08/29 05:38:26;;;;;;;1.40;1.00;;;;;20.30;102106.00;;;;5084401;28;20198;-76
2022/08/29 05:40:55;;;;;;;1.50;1.20;;;;;20.30;102108.00;;;;5095348;28;20198;-77
2022/08/29 05:43:23;;;;;;;1.85;0.82;;;;;20.40;102103.00;;;;5091033;28;20213;-76
2022/08/29 05:46:00;;;;;;;1.35;0.90;;;;;20.40;102104.00;;;;5090561;28;20621;-76
2022/08/29 05:48:28;;;;;;;1.52;1.00;;;;;20.40;102112.00;;;;5091694;28;20286;-76
2022/08/29 05:50:55;;;;;;;1.67;1.15;;;;;20.40;102114.00;;;;5091477;28;20198;-77
2022/08/29 05:53:23;;;;;;;3.50;0.95;;;;;20.50;102112.00;;;;5088360;28;20233;-77
2022/08/29 05:55:50;;;;;;;2.08;1.13;;;;;20.50;102111.00;;;;5088282;28;20284;-78
2022/08/29 05:58:19;;;;;;;2.25;1.25;;;;;20.50;102108.00;;;;5087968;28;20195;-78
2022/08/29 06:00:48;;;;;;;1.48;1.00;;;;;20.60;102116.00;;;;5088520;28;20210;-78
2022/08/29 06:03:16;;;;;;;2.45;1.10;;;;;20.60;102113.00;;;;5090597;28;20202;-77
2022/08/29 06:05:49;;;;;;;4.53;1.10;;;;;20.70;102112.00;;;;5100829;28;20189;-77
2022/08/29 06:08:16;;;;;;;2.13;0.93;;;;;20.70;102114.00;;;;5100588;28;20202;-79
2022/08/29 06:10:44;;;;;;;1.98;1.10;;;;;20.70;102113.00;;;;5097736;28;20198;-77
2022/08/29 06:13:11;;;;;;;2.55;1.08;;;;;20.80;102120.00;;;;5091106;28;20253;-77
2022/08/29 06:15:43;;;;;;;2.40;1.08;;;;;20.80;102113.00;;;;5091959;28;20206;-77
2022/08/29 06:18:10;;;;;;;2.15;1.23;;;;;20.90;102128.00;;;;5092192;28;20194;-78
2022/08/29 06:20:38;;;;;;;1.77;0.90;;;;;20.90;102117.00;;;;5090372;28;20218;-78
2022/08/29 06:23:06;;;;;;;2.50;1.23;;;;;21.00;102126.00;;;;5071218;28;20681;-78
2022/08/29 06:25:33;;;;;;;2.05;1.20;;;;;21.00;102126.00;;;;5075370;28;20215;-78
2022/08/29 06:28:01;;;;;;;3.00;1.10;;;;;21.00;102130.00;;;;5111179;28;20225;-78
2022/08/29 06:30:30;;;;;;;3.35;1.00;;;;;21.10;102130.00;;;;5099050;28;20206;-78
2022/08/29 06:32:59;;;;;;;4.72;1.15;;;;;21.10;102131.00;;;;5091077;28;20700;-78
2022/08/29 06:35:26;;;;;;;2.28;0.98;;;;;21.20;102131.00;;;;5090558;28;20198;-78
2022/08/29 06:37:54;;;;;;;2.65;0.88;;;;;21.20;102141.00;;;;5089445;28;20201;-77
2022/08/29 06:40:21;;;;;;;5.13;1.52;;;;;21.20;102141.00;;;;5090640;28;20190;-78
2022/08/29 06:42:48;;;;;;;3.70;1.35;;;;;21.30;102148.00;;;;5108079;28;20208;-77
2022/08/29 06:45:16;;;;;;;3.97;0.88;;;;;21.30;102157.00;;;;5090220;28;20209;-77
2022/08/29 06:47:45;;;;;;;2.03;1.00;;;;;21.40;102153.00;;;;5090051;28;20750;-77
2022/08/29 06:50:14;;;;;;;3.08;0.80;;;;;21.40;102155.00;;;;5090300;28;20194;-77
2022/08/29 06:52:41;;;;;;;1.65;1.15;;;;;21.40;102152.00;;;;5088112;28;20214;-77
2022/08/29 06:55:11;;;;;;;5.63;1.27;;;;;21.50;102152.00;;;;5089421;28;20198;-77
2022/08/29 06:57:41;;;;;;;1.85;1.10;;;;;21.60;102150.00;;;;5090045;28;20630;-77
2022/08/29 07:00:11;;;;;;;5.63;1.40;;;;;21.60;102147.00;;;;5090277;28;20206;-77
2022/08/29 07:02:38;;;;;;;2.78;1.05;;;;;21.70;102157.00;;;;5089431;28;20202;-77
2022/08/29 07:05:06;;;;;;;1.50;0.90;;;;;21.70;102146.00;;;;5090057;28;20198;-77
2022/08/29 07:07:35;;;;;;;2.00;1.08;;;;;21.80;102148.00;;;;5090563;28;20199;-77
2022/08/29 07:10:02;;;;;;;2.60;1.40;;;;;21.90;102146.00;;;;5089598;28;20695;-78
2022/08/29 07:12:30;;;;;;;4.65;1.50;;;;;21.90;102141.00;;;;5110166;28;20550;-77
2022/08/29 07:14:57;;;;;;;2.95;1.30;;;;;22.00;102143.00;;;;5094674;28;20205;-77
2022/08/29 07:17:24;;;;;;;3.13;1.42;;;;;22.00;102149.00;;;;5089770;28;20667;-77
2022/08/29 07:19:53;;;;;;;2.95;1.27;;;;;22.10;102146.00;;;;5089512;28;20222;-77
2022/08/29 07:22:20;;;;;;;4.68;1.60;;;;;22.20;102149.00;;;;5088466;28;20206;-77
2022/08/29 07:24:49;;;;;;;4.95;1.90;;;;;22.20;102146.00;;;;5089326;28;20213;-78
2022/08/29 07:27:16;;;;;;;2.83;1.40;;;;;22.30;102137.00;;;;5091294;28;20718;-77
2022/08/29 07:29:44;;;;;;;3.33;1.33;;;;;22.30;102139.00;;;;5087487;28;20206;-77
2022/08/29 07:32:11;;;;;;;5.68;1.70;;;;;22.40;102137.00;;;;5088271;28;20206;-77
2022/08/29 07:34:38;;;;;;;5.40;1.30;;;;;22.50;102135.00;;;;5089293;28;20222;-77
2022/08/29 07:37:06;;;;;;;2.60;1.30;;;;;22.50;102139.00;;;;5088417;28;20195;-77
2022/08/29 07:39:33;;;;;;;4.22;1.58;;;;;22.60;102142.00;;;;5088994;28;21066;-77
2022/08/29 07:42:03;;;;;;;3.83;1.90;;;;;22.60;102145.00;;;;5088638;28;20205;-77
2022/08/29 07:44:31;;;;;;;3.60;1.80;;;;;22.70;102145.00;;;;5090210;28;20206;-78
2022/08/29 07:47:00;;;;;;;3.78;1.55;;;;;22.70;102157.00;;;;5088105;28;20407;-76
2022/08/29 07:49:29;;;;;;;4.97;1.60;;;;;22.80;102158.00;;;;5088878;28;20206;-76
2022/08/29 07:51:56;;;;;;;6.15;1.35;;;;;22.90;102152.00;;;;5089755;28;20289;-77
2022/08/29 07:54:24;;;;;;;3.63;1.88;;;;;23.00;102150.00;;;;5089711;28;20229;-77
2022/08/29 07:56:52;;;;;;;3.72;1.48;;;;;23.10;102144.00;;;;5090538;28;20289;-77
2022/08/29 07:59:24;;;;;;;2.38;1.48;;;;;23.10;102143.00;;;;5090362;28;20209;-77
2022/08/29 08:01:52;;;;;;;3.03;1.75;;;;;23.20;102150.00;;;;5089421;28;20198;-77
2022/08/29 08:04:19;;;;;;;3.42;1.55;;;;;23.20;102153.00;;;;5088219;28;20210;-77
2022/08/29 08:06:47;;;;;;;3.80;1.85;;;;;23.30;102152.00;;;;5089824;28;20202;-76
2022/08/29 08:09:15;;;;;;;3.58;1.63;;;;;23.40;102149.00;;;;5088920;28;20206;-76
2022/08/29 08:11:43;;;;;;;2.78;1.15;;;;;23.40;102150.00;;;;5088692;28;20577;-77
2022/08/29 08:14:11;;;;;;;5.65;2.13;;;;;23.50;102149.00;;;;5089445;28;20606;-77
2022/08/29 08:16:40;;;;;;;2.95;1.27;;;;;23.60;102151.00;;;;5089146;28;20222;-77
2022/08/29 08:19:07;;;;;;;2.20;1.48;;;;;23.70;102154.00;;;;5091749;28;20213;-77
2022/08/29 08:21:34;;;;;;;2.78;1.52;;;;;23.80;102151.00;;;;5085797;28;20230;-77
2022/08/29 08:24:02;;;;;;;3.58;1.50;;;;;23.80;102154.00;;;;5086142;28;20206;-77
2022/08/29 08:26:30;;;;;;;3.30;1.55;;;;;23.90;102150.00;;;;5088430;28;20263;-77
2022/08/29 08:28:57;;;;;;;5.07;1.67;;;;;24.00;102149.00;;;;5086854;28;20329;-77
2022/08/29 08:31:25;;;;;;;3.30;1.10;;;;;24.00;102152.00;;;;5084868;28;20201;-77
2022/08/29 08:33:54;;;;;;;3.53;1.48;;;;;24.10;102156.00;;;;5087974;28;20713;-77
2022/08/29 08:36:24;;;;;;;3.83;1.17;;;;;24.10;102156.00;;;;5087875;28;20206;-76
2022/08/29 08:38:52;;;;;;;4.88;1.63;;;;;24.10;102155.00;;;;5071849;28;20205;-76
2022/08/29 08:41:35;;;;;;;3.15;1.60;;;;;24.10;102156.00;;;;5090629;28;20206;-77
2022/08/29 08:44:05;;;;;;;3.22;1.40;;;;;24.20;102149.00;;;;5109088;28;20237;-77
2022/08/29 08:46:38;;;;;;;3.70;1.40;;;;;24.20;102153.00;;;;5093252;28;20194;-77
2022/08/29 08:49:13;;;;;;;3.88;2.05;;;;;24.20;102154.00;;;;5087160;28;20268;-76
2022/08/29 08:51:44;;;;;;;3.13;1.55;;;;;24.30;102156.00;;;;5088276;28;20216;-77
2022/08/29 08:54:18;;;;;;;4.97;1.50;;;;;24.30;102166.00;;;;5087744;28;20222;-77
2022/08/29 08:56:50;;;;;;;2.53;1.27;;;;;24.40;102157.00;;;;5095934;28;20354;-77
2022/08/29 08:59:25;;;;;;;2.65;1.30;;;;;24.40;102158.00;;;;5103056;28;20198;-77
2022/08/29 09:02:01;;;;;;;4.60;1.35;;;;;24.40;102158.00;;;;5087373;28;20596;-77
2022/08/29 09:04:42;;;;;;;2.85;1.30;;;;;24.40;102159.00;;;;5087960;28;20205;-77
2022/08/29 09:07:21;;;;;;;4.50;1.77;;;;;24.40;102166.00;;;;5088360;28;20521;-77
2022/08/29 09:10:07;;;;;;;2.47;1.17;;;;;24.40;102167.00;;;;5087741;28;20198;-77
2022/08/29 09:12:50;;;;;;;2.42;1.50;;;;;24.40;102169.00;;;;5067282;28;20203;-77
2022/08/29 09:15:21;;;;;;;3.85;1.40;;;;;24.40;102176.00;;;;5067696;28;20222;-77
2022/08/29 09:17:54;;;;;;;3.85;1.38;;;;;24.50;102175.00;;;;5067895;28;20668;-77
2022/08/29 09:20:27;;;;;;;2.88;1.58;;;;;24.50;102173.00;;;;5083840;28;20209;-77
2022/08/29 09:23:00;;;;;;;3.85;1.40;;;;;24.50;102174.00;;;;5092629;28;20198;-77
2022/08/29 09:25:29;;;;;;;6.55;1.70;;;;;24.50;102180.00;;;;5106923;28;20204;-77
2022/08/29 09:27:57;;;;;;;2.78;1.50;;;;;24.60;102175.00;;;;5108143;28;20271;-77
2022/08/29 09:30:27;;;;;;;4.85;1.70;;;;;24.60;102172.00;;;;5090576;28;20198;-77
2022/08/29 09:33:01;;;;;;;3.30;1.40;;;;;24.60;102168.00;;;;5087870;28;20194;-77
2022/08/29 09:35:38;;;;;;;3.97;1.60;;;;;24.70;102169.00;;;;5087262;28;20225;-77
2022/08/29 09:38:07;;;;;;;3.58;1.42;;;;;24.80;102174.00;;;;5085877;28;20202;-77
2022/08/29 09:40:49;;;;;;;4.20;1.58;;;;;24.80;102167.00;;;;5086943;28;20198;-77
2022/08/29 09:43:20;;;;;;;2.45;1.05;;;;;24.90;102162.00;;;;5086953;28;20198;-77
2022/08/29 09:46:12;;;;;;;2.90;1.35;;;;;25.00;102165.00;;;;5087275;28;20212;-77
2022/08/29 09:48:42;;;;;;;4.07;1.33;;;;;25.20;102170.00;;;;5086208;28;20209;-77
2022/08/29 09:51:15;;;;;;;2.72;1.35;;;;;25.40;102171.00;;;;5087176;28;20209;-78
2022/08/29 09:53:42;;;;;;;5.88;1.83;;;;;25.50;102174.00;;;;5095530;28;20218;-76
2022/08/29 09:56:16;;;;;;;3.25;1.23;;;;;25.60;102177.00;;;;5087624;28;20221;-76
2022/08/29 09:58:43;;;;;;;3.17;1.25;;;;;25.80;102179.00;;;;5087245;28;20204;-77
2022/08/29 10:01:17;;;;;;;3.10;1.40;;;;;25.80;102173.00;;;;5085833;28;20202;-76
2022/08/29 10:03:54;;;;;;;3.13;1.25;;;;;25.80;102181.00;;;;5086225;28;20198;-77
2022/08/29 10:06:25;;;;;;;3.28;1.52;;;;;26.00;102168.00;;;;5087455;28;20197;-76
2022/08/29 10:09:00;;;;;;;2.10;1.10;;;;;26.10;102169.00;;;;5087855;28;20521;-76
2022/08/29 10:11:31;;;;;;;2.80;1.33;;;;;26.30;102161.00;;;;5085925;28;20194;-77
2022/08/29 10:14:03;;;;;;;3.80;1.17;;;;;26.40;102167.00;;;;5087273;28;20218;-76
2022/08/29 10:16:42;;;;;;;1.98;1.27;;;;;26.60;102169.00;;;;5087170;28;20202;-77
2022/08/29 10:19:13;;;;;;;2.47;1.30;;;;;26.70;102163.00;;;;5085283;28;20194;-77
2022/08/29 10:21:55;;;;;;;2.13;1.55;;;;;26.80;102164.00;;;;5077738;28;20226;-77
2022/08/29 10:24:40;;;;;;;2.78;1.73;;;;;27.00;102172.00;;;;5086486;28;20233;-77
2022/08/29 10:27:19;;;;;;;3.40;1.60;;;;;27.00;102168.00;;;;5086649;28;20226;-77
2022/08/29 10:30:13;;;;;;;3.67;1.30;;;;;27.00;102166.00;;;;5075973;28;20201;-77
2022/08/29 10:33:11;;;;;;;4.07;1.40;;;;;27.00;102165.00;;;;5090978;28;20237;-77
2022/08/29 10:35:45;;;;;;;3.17;1.42;;;;;27.20;102164.00;;;;5090297;28;20226;-77
2022/08/29 10:38:22;;;;;;;2.42;1.25;;;;;27.20;102170.00;;;;5090070;28;20198;-77
2022/08/29 10:40:52;;;;;;;2.72;1.45;;;;;27.30;102173.00;;;;5090615;28;20728;-77
2022/08/29 10:43:40;;;;;;;2.15;1.20;;;;;27.20;102157.00;;;;5090872;28;20198;-78
2022/08/29 10:46:38;;;;;;;1.63;1.10;;;;;27.20;102160.00;;;;5090164;28;20308;-77
2022/08/29 10:49:19;;;;;;;2.65;1.20;;;;;27.30;102166.00;;;;5088587;28;20202;-77
2022/08/29 10:51:53;;;;;;;2.10;0.93;;;;;27.30;102163.00;;;;5075253;28;20207;-77
2022/08/29 10:54:32;;;;;;;3.50;1.70;;;;;27.30;102157.00;;;;5070049;28;20230;-77
2022/08/29 10:57:01;;;;;;;3.67;1.25;;;;;27.30;102156.00;;;;5083666;28;20201;-77
2022/08/29 10:59:41;;;;;;;2.42;1.42;;;;;27.20;102154.00;;;;5089430;28;20190;-77
2022/08/29 11:02:17;;;;;;;2.45;1.20;;;;;27.20;102150.00;;;;5089921;28;20212;-76
2022/08/29 11:04:50;;;;;;;2.40;1.60;;;;;27.20;102147.00;;;;5075252;28;20205;-76
2022/08/29 11:07:22;;;;;;;1.98;1.13;;;;;27.20;102144.00;;;;5089841;28;20221;-76
2022/08/29 11:09:57;;;;;;;2.92;1.33;;;;;27.10;102142.00;;;;5089008;28;20668;-76
2022/08/29 11:12:33;;;;;;;2.58;1.08;;;;;27.10;102146.00;;;;5090482;28;20575;-77
2022/08/29 11:15:06;;;;;;;2.95;1.40;;;;;27.20;102146.00;;;;5085592;28;20226;-77
2022/08/29 11:17:39;;;;;;;3.15;1.45;;;;;27.20;102147.00;;;;5069595;28;20191;-77
2022/08/29 11:20:11;;;;;;;1.73;1.25;;;;;27.10;102138.00;;;;5086464;28;20222;-76
2022/08/29 11:22:44;;;;;;;3.60;1.65;;;;;27.10;102133.00;;;;5088317;28;20198;-76
2022/08/29 11:25:15;;;;;;;3.53;1.35;;;;;27.20;102127.00;;;;5078845;28;20198;-77
2022/08/29 11:27:53;;;;;;;1.90;1.10;;;;;27.20;102133.00;;;;5084736;28;20779;-77
2022/08/29 11:30:23;;;;;;;2.00;1.27;;;;;27.40;102132.00;;;;5083321;28;20202;-77
2022/08/29 11:33:03;;;;;;;5.13;1.40;;;;;27.40;102132.00;;;;5081554;28;20198;-77
2022/08/29 11:35:45;;;;;;;2.65;1.70;;;;;27.50;102122.00;;;;5087927;28;20583;-78
2022/08/29 11:38:59;;;;;;;3.33;1.48;;;;;27.50;102121.00;;;;5088675;28;20571;-78
2022/08/29 11:41:31;;;;;;;3.85;1.90;;;;;27.60;102119.00;;;;5086019;28;20226;-78
2022/08/29 11:44:17;;;;;;;2.67;1.20;;;;;27.50;102112.00;;;;5088579;28;20190;-79
2022/08/29 11:46:47;;;;;;;2.40;1.33;;;;;27.70;102102.00;;;;5087708;28;20676;-78
2022/08/29 11:49:35;;;;;;;2.53;1.40;;;;;27.70;102109.00;;;;5086951;28;20194;-78
2022/08/29 11:52:16;;;;;;;5.30;1.83;;;;;27.80;102102.00;;;;5085260;28;20202;-77
2022/08/29 11:55:08;;;;;;;1.55;1.20;;;;;27.90;102096.00;;;;5087403;28;20575;-77
2022/08/29 11:57:56;;;;;;;2.15;1.30;;;;;28.00;102089.00;;;;5075671;28;20194;-79
2022/08/29 12:00:45;;;;;;;2.80;1.17;;;;;28.10;102098.00;;;;5084435;28;20210;-77
2022/08/29 12:03:55;;;;;;;2.58;1.40;;;;;28.20;102101.00;;;;5086202;28;20691;-77
2022/08/29 12:06:36;;;;;;;3.08;1.48;;;;;28.30;102105.00;;;;5086081;28;20202;-77
2022/08/29 12:09:17;;;;;;;1.83;1.10;;;;;28.30;102109.00;;;;5081346;28;20234;-77
2022/08/29 12:12:21;;;;;;;3.22;1.25;;;;;28.20;102112.00;;;;5086083;28;20198;-77
2022/08/29 12:14:51;;;;;;;2.50;1.25;;;;;28.30;102114.00;;;;5089085;28;20224;-77
2022/08/29 12:17:52;;;;;;;2.75;0.90;;;;;28.10;102116.00;;;;5088810;28;20221;-79
2022/08/29 12:20:38;;;;;;;1.95;1.30;;;;;28.10;102111.00;;;;5002711;28;20833;-79
2022/08/29 12:23:17;;;;;;;2.47;1.25;;;;;28.20;102107.00;;;;4997965;28;20198;-79
2022/08/29 12:25:50;;;;;;;5.88;1.27;;;;;28.10;102108.00;;;;5042120;28;20210;-78
2022/08/29 12:28:37;;;;;;;4.05;1.20;;;;;28.00;102102.00;;;;5087248;28;20230;-78
2022/08/29 12:31:13;;;;;;;2.67;1.23;;;;;28.00;102103.00;;;;5084954;28;20194;-78
2022/08/29 12:33:57;;;;;;;3.33;0.80;;;;;28.00;102101.00;;;;5082392;28;20206;-78